createdAt,value
2017-09-30T00:01:02.806Z,15.40
2017-09-30T00:03:31.146Z,15.30
2017-09-30T00:05:58.720Z,15.30
2017-09-30T00:08:26.655Z,15.30
2017-09-30T00:10:55.081Z,15.30
2017-09-30T00:13:22.655Z,15.30
2017-09-30T00:15:51.030Z,15.30
2017-09-30T00:18:19.373Z,15.30
2017-09-30T00:20:46.954Z,15.30
2017-09-30T00:23:14.887Z,15.30
2017-09-30T00:25:43.223Z,15.20
2017-09-30T00:28:10.807Z,15.20
2017-09-30T00:30:38.439Z,15.30
2017-09-30T00:33:06.783Z,15.20
2017-09-30T00:35:35.130Z,15.20
2017-09-30T00:38:02.911Z,15.10
2017-09-30T00:40:31.274Z,15.10
2017-09-30T00:42:59.619Z,15.10
2017-09-30T00:45:27.251Z,15.10
2017-09-30T00:47:54.836Z,15.10
2017-09-30T00:50:22.408Z,15.10
2017-09-30T00:52:50.130Z,15.10
2017-09-30T00:55:17.712Z,15.00
2017-09-30T00:57:45.379Z,15.10
2017-09-30T01:00:13.213Z,15.10
2017-09-30T01:02:41.655Z,15.00
2017-09-30T01:05:09.227Z,15.10
2017-09-30T01:07:37.107Z,15.10
2017-09-30T01:10:05.441Z,15.00
2017-09-30T01:12:33.183Z,15.00
2017-09-30T01:15:00.821Z,15.00
2017-09-30T01:17:28.402Z,15.00
2017-09-30T01:19:56.756Z,14.90
2017-09-30T01:22:24.622Z,14.90
2017-09-30T01:24:52.960Z,14.90
2017-09-30T01:27:20.586Z,14.80
2017-09-30T01:29:48.209Z,14.80
2017-09-30T01:32:15.779Z,14.80
2017-09-30T01:34:44.893Z,14.80
2017-09-30T01:37:13.499Z,14.70
2017-09-30T01:39:41.070Z,14.70
2017-09-30T01:42:08.643Z,14.70
2017-09-30T01:44:37.046Z,14.70
2017-09-30T01:47:04.626Z,14.60
2017-09-30T01:49:32.201Z,14.70
2017-09-30T01:52:00.596Z,14.60
2017-09-30T01:54:28.171Z,14.60
2017-09-30T01:56:55.747Z,14.60
2017-09-30T01:59:24.134Z,14.60
2017-09-30T02:01:51.703Z,14.60
2017-09-30T02:04:19.280Z,14.60
2017-09-30T02:06:46.914Z,14.60
2017-09-30T02:09:14.501Z,14.50
2017-09-30T02:11:42.120Z,14.50
2017-09-30T02:14:10.511Z,14.60
2017-09-30T02:16:38.083Z,14.50
2017-09-30T02:19:05.652Z,14.50
2017-09-30T02:21:33.278Z,14.50
2017-09-30T02:24:00.860Z,14.60
2017-09-30T02:26:29.210Z,14.60
2017-09-30T02:28:56.829Z,14.60
2017-09-30T02:31:24.398Z,14.60
2017-09-30T02:33:51.973Z,14.60
2017-09-30T02:36:20.579Z,14.60
2017-09-30T02:38:48.158Z,14.60
2017-09-30T02:41:15.785Z,14.50
2017-09-30T02:43:43.538Z,14.60
2017-09-30T02:46:11.119Z,14.50
2017-09-30T02:48:38.704Z,14.50
2017-09-30T02:51:06.505Z,14.50
2017-09-30T02:53:34.854Z,14.50
2017-09-30T02:56:03.199Z,14.40
2017-09-30T02:58:30.838Z,14.40
2017-09-30T03:00:58.419Z,14.40
2017-09-30T03:03:26.770Z,14.30
2017-09-30T03:05:55.297Z,14.30
2017-09-30T03:08:22.879Z,14.30
2017-09-30T03:10:51.227Z,14.20
2017-09-30T03:13:19.069Z,14.20
2017-09-30T03:15:46.658Z,14.20
2017-09-30T03:18:14.257Z,14.10
2017-09-30T03:20:41.882Z,14.10
2017-09-30T03:23:09.465Z,14.10
2017-09-30T03:25:37.814Z,14.10
2017-09-30T03:28:06.322Z,14.10
2017-09-30T03:30:34.733Z,14.10
2017-09-30T03:33:02.298Z,14.10
2017-09-30T03:35:29.934Z,14.10
2017-09-30T03:37:57.516Z,14.10
2017-09-30T03:40:25.095Z,14.10
2017-09-30T03:42:52.911Z,14.10
2017-09-30T03:45:20.495Z,14.10
2017-09-30T03:47:48.083Z,14.00
2017-09-30T03:50:16.479Z,14.00
2017-09-30T03:52:44.067Z,14.00
2017-09-30T03:55:11.642Z,13.90
2017-09-30T03:57:39.408Z,13.90
2017-09-30T04:00:06.989Z,13.90
2017-09-30T04:02:34.572Z,13.80
2017-09-30T04:05:02.960Z,13.90
2017-09-30T04:07:30.533Z,13.80
2017-09-30T04:09:58.128Z,13.80
2017-09-30T04:12:26.698Z,13.80
2017-09-30T04:14:54.284Z,13.80
2017-09-30T04:17:21.858Z,13.80
2017-09-30T04:19:50.251Z,13.80
2017-09-30T04:22:17.827Z,13.80
2017-09-30T04:24:45.415Z,13.80
2017-09-30T04:27:13.809Z,13.80
2017-09-30T04:29:41.416Z,13.80
2017-09-30T04:32:08.994Z,13.80
2017-09-30T04:34:36.634Z,13.70
2017-09-30T04:37:04.225Z,13.70
2017-09-30T04:39:31.804Z,13.70
2017-09-30T04:42:00.205Z,13.70
2017-09-30T04:44:27.886Z,13.70
2017-09-30T04:46:55.470Z,13.70
2017-09-30T04:49:24.002Z,13.70
2017-09-30T04:51:51.590Z,13.60
2017-09-30T04:54:19.179Z,13.70
2017-09-30T04:56:46.867Z,13.60
2017-09-30T04:59:15.214Z,13.60
2017-09-30T05:01:42.783Z,13.60
2017-09-30T05:04:10.427Z,13.60
2017-09-30T05:06:38.009Z,13.60
2017-09-30T05:09:05.587Z,13.60
2017-09-30T05:11:33.226Z,13.60
2017-09-30T05:14:01.914Z,13.60
2017-09-30T05:16:30.860Z,13.60
2017-09-30T05:18:58.649Z,13.60
2017-09-30T05:21:27.073Z,13.60
2017-09-30T05:23:54.654Z,13.50
2017-09-30T05:26:23.498Z,13.50
2017-09-30T05:28:51.081Z,13.50
2017-09-30T05:31:18.663Z,13.50
2017-09-30T05:33:46.295Z,13.60
2017-09-30T05:36:15.962Z,13.50
2017-09-30T05:38:43.865Z,13.60
2017-09-30T05:41:11.612Z,13.50
2017-09-30T05:43:39.193Z,13.50
2017-09-30T05:46:07.654Z,13.50
2017-09-30T05:48:35.507Z,13.50
2017-09-30T05:51:03.202Z,13.50
2017-09-30T05:53:30.782Z,13.60
2017-09-30T05:55:59.202Z,13.60
2017-09-30T05:58:26.774Z,13.60
2017-09-30T06:00:55.114Z,13.70
2017-09-30T06:03:22.738Z,13.60
2017-09-30T06:05:50.320Z,13.60
2017-09-30T06:08:18.756Z,13.60
2017-09-30T06:10:46.425Z,13.60
2017-09-30T06:13:14.465Z,13.60
2017-09-30T06:15:42.100Z,13.70
2017-09-30T06:18:09.890Z,13.60
2017-09-30T06:20:38.235Z,13.60
2017-09-30T06:23:05.823Z,13.60
2017-09-30T06:25:33.443Z,13.60
2017-09-30T06:28:01.150Z,13.60
2017-09-30T06:30:28.735Z,13.60
2017-09-30T06:32:56.362Z,13.60
2017-09-30T06:35:24.725Z,13.70
2017-09-30T06:37:53.067Z,13.60
2017-09-30T06:40:20.782Z,13.60
2017-09-30T06:42:48.368Z,13.60
2017-09-30T06:45:15.949Z,13.60
2017-09-30T06:47:43.602Z,13.60
2017-09-30T06:50:11.180Z,13.60
2017-09-30T06:52:38.758Z,13.60
2017-09-30T06:55:07.351Z,13.50
2017-09-30T06:57:34.930Z,13.50
2017-09-30T07:00:02.805Z,13.50
2017-09-30T07:02:30.438Z,13.50
2017-09-30T07:04:58.022Z,13.50
2017-09-30T07:07:26.361Z,13.50
2017-09-30T07:09:54.951Z,13.50
2017-09-30T07:12:23.286Z,13.50
2017-09-30T07:14:50.866Z,13.50
2017-09-30T07:17:18.498Z,13.50
2017-09-30T07:19:46.852Z,13.50
2017-09-30T07:22:15.199Z,13.60
2017-09-30T07:24:43.795Z,13.60
2017-09-30T07:27:11.368Z,13.60
2017-09-30T07:29:38.948Z,13.60
2017-09-30T07:32:06.746Z,13.70
2017-09-30T07:34:34.439Z,13.60
2017-09-30T07:37:02.022Z,13.70
2017-09-30T07:39:29.863Z,13.70
2017-09-30T07:41:58.207Z,13.80
2017-09-30T07:44:25.775Z,13.80
2017-09-30T07:46:53.525Z,14.00
2017-09-30T07:49:21.861Z,14.10
2017-09-30T07:51:50.201Z,14.10
2017-09-30T07:54:18.031Z,14.10
2017-09-30T07:56:45.614Z,14.20
2017-09-30T07:59:13.203Z,14.20
2017-09-30T08:01:41.158Z,14.30
2017-09-30T08:04:08.736Z,14.50
2017-09-30T08:06:36.383Z,14.50
2017-09-30T08:09:04.018Z,14.50
2017-09-30T08:11:31.599Z,14.50
2017-09-30T08:13:59.951Z,14.80
2017-09-30T08:16:27.822Z,14.80
2017-09-30T08:18:56.162Z,14.70
2017-09-30T08:21:23.734Z,14.70
2017-09-30T08:23:52.563Z,14.60
2017-09-30T08:26:20.177Z,14.60
2017-09-30T08:28:47.742Z,14.60
2017-09-30T08:31:15.386Z,14.70
2017-09-30T08:33:42.967Z,14.70
2017-09-30T08:36:11.310Z,14.80
2017-09-30T08:38:38.942Z,14.80
2017-09-30T08:41:06.513Z,14.90
2017-09-30T08:43:34.103Z,14.90
2017-09-30T08:46:01.720Z,14.90
2017-09-30T08:48:30.064Z,15.00
2017-09-30T08:50:58.403Z,15.00
2017-09-30T08:53:26.127Z,15.00
2017-09-30T08:55:53.700Z,15.00
2017-09-30T08:58:21.281Z,15.00
2017-09-30T09:00:49.674Z,15.00
2017-09-30T09:03:17.267Z,15.00
2017-09-30T09:05:44.888Z,14.90
2017-09-30T09:08:12.678Z,14.90
2017-09-30T09:10:41.114Z,14.90
2017-09-30T09:13:08.747Z,14.90
2017-09-30T09:15:36.394Z,14.80
2017-09-30T09:18:03.974Z,14.90
2017-09-30T09:20:32.383Z,14.90
2017-09-30T09:23:00.012Z,14.90
2017-09-30T09:25:27.591Z,15.00
2017-09-30T09:27:55.166Z,15.10
2017-09-30T09:30:23.566Z,15.20
2017-09-30T09:32:51.167Z,15.20
2017-09-30T09:35:19.509Z,15.30
2017-09-30T09:37:47.126Z,15.30
2017-09-30T09:40:14.705Z,15.30
2017-09-30T09:42:42.284Z,15.30
2017-09-30T09:45:09.907Z,15.40
2017-09-30T09:47:38.247Z,15.50
2017-09-30T09:50:05.821Z,15.50
2017-09-30T09:52:34.202Z,15.50
2017-09-30T09:55:01.778Z,15.50
2017-09-30T09:57:29.369Z,15.60
2017-09-30T09:59:57.924Z,15.60
2017-09-30T10:02:25.490Z,15.60
2017-09-30T10:04:53.834Z,15.80
2017-09-30T10:07:22.416Z,15.90
2017-09-30T10:09:50.766Z,15.90
2017-09-30T10:12:19.119Z,15.90
2017-09-30T10:14:46.756Z,15.90
2017-09-30T10:17:14.330Z,15.80
2017-09-30T10:19:42.671Z,15.80
2017-09-30T10:22:10.463Z,15.80
2017-09-30T10:24:38.059Z,15.80
2017-09-30T10:27:05.633Z,15.70
2017-09-30T10:29:34.036Z,15.70
2017-09-30T10:32:01.606Z,15.70
2017-09-30T10:34:29.203Z,15.70
2017-09-30T10:36:56.835Z,15.60
2017-09-30T10:39:24.418Z,15.60
2017-09-30T10:41:51.989Z,15.60
2017-09-30T10:44:19.626Z,15.60
2017-09-30T10:46:47.202Z,15.60
2017-09-30T10:49:15.541Z,15.70
2017-09-30T10:51:43.178Z,15.70
2017-09-30T10:54:10.809Z,15.70
2017-09-30T10:56:38.381Z,15.70
2017-09-30T10:59:06.140Z,15.70
2017-09-30T11:01:34.485Z,15.60
2017-09-30T11:04:03.579Z,15.60
2017-09-30T11:06:32.121Z,15.60
2017-09-30T11:08:59.695Z,15.60
2017-09-30T11:11:28.030Z,15.70
2017-09-30T11:13:55.656Z,15.60
2017-09-30T11:16:23.230Z,15.70
2017-09-30T11:18:51.613Z,15.80
2017-09-30T11:21:20.171Z,15.90
2017-09-30T11:23:48.506Z,15.90
2017-09-30T11:26:16.075Z,15.80
2017-09-30T11:28:44.614Z,15.80
2017-09-30T11:31:12.187Z,15.90
2017-09-30T11:33:40.526Z,16.00
2017-09-30T11:36:08.286Z,16.00
2017-09-30T11:38:36.105Z,16.20
2017-09-30T11:41:04.474Z,16.40
2017-09-30T11:43:32.094Z,16.30
2017-09-30T11:45:59.663Z,16.50
2017-09-30T11:48:27.230Z,16.50
2017-09-30T11:50:55.649Z,16.50
2017-09-30T11:53:23.218Z,16.50
2017-09-30T11:55:50.810Z,16.40
2017-09-30T11:58:18.417Z,16.40
2017-09-30T12:00:46.055Z,16.40
2017-09-30T12:03:13.634Z,16.40
2017-09-30T12:05:41.262Z,16.50
2017-09-30T12:08:09.598Z,16.50
2017-09-30T12:10:37.181Z,16.40
2017-09-30T12:13:05.753Z,16.40
2017-09-30T12:15:33.351Z,16.30
2017-09-30T12:18:00.928Z,16.30
2017-09-30T12:20:29.314Z,16.30
2017-09-30T12:22:56.887Z,16.30
2017-09-30T12:25:24.452Z,16.30
2017-09-30T12:27:52.087Z,16.40
2017-09-30T12:30:19.674Z,16.40
2017-09-30T12:32:48.015Z,16.60
2017-09-30T12:35:15.643Z,16.60
2017-09-30T12:37:43.241Z,16.60
2017-09-30T12:40:10.819Z,16.70
2017-09-30T12:42:38.615Z,16.70
2017-09-30T12:45:06.201Z,16.80
2017-09-30T12:47:33.864Z,16.80
2017-09-30T12:50:01.483Z,16.90
2017-09-30T12:52:29.055Z,16.90
2017-09-30T12:54:56.790Z,16.90
2017-09-30T12:57:24.650Z,16.90
2017-09-30T12:59:52.218Z,16.90
2017-09-30T13:02:19.788Z,17.00
2017-09-30T13:04:47.414Z,17.00
2017-09-30T13:07:15.750Z,17.00
2017-09-30T13:09:43.310Z,17.00
2017-09-30T13:12:10.940Z,17.00
2017-09-30T13:14:38.524Z,17.10
2017-09-30T13:17:06.090Z,17.00
2017-09-30T13:19:33.713Z,17.10
2017-09-30T13:22:01.289Z,17.00
2017-09-30T13:24:28.863Z,17.00
2017-09-30T13:26:56.478Z,16.90
2017-09-30T13:29:24.054Z,16.90
2017-09-30T13:31:51.627Z,16.90
2017-09-30T13:34:20.196Z,16.90
2017-09-30T13:36:47.775Z,16.90
2017-09-30T13:39:15.348Z,17.00
2017-09-30T13:41:42.964Z,17.00
2017-09-30T13:44:10.534Z,17.10
2017-09-30T13:46:38.129Z,17.10
2017-09-30T13:49:05.755Z,17.10
2017-09-30T13:51:34.111Z,17.30
2017-09-30T13:54:02.455Z,17.30
2017-09-30T13:56:30.092Z,17.20
2017-09-30T13:58:57.690Z,17.20
2017-09-30T14:01:25.277Z,17.20
2017-09-30T14:03:53.025Z,17.10
2017-09-30T14:06:20.610Z,17.10
2017-09-30T14:08:48.942Z,17.00
2017-09-30T14:11:16.703Z,17.00
2017-09-30T14:13:45.074Z,16.90
2017-09-30T14:16:13.410Z,16.90
2017-09-30T14:18:41.190Z,16.90
2017-09-30T14:21:09.534Z,16.90
2017-09-30T14:23:37.103Z,16.90
2017-09-30T14:26:04.835Z,16.80
2017-09-30T14:28:33.173Z,16.70
2017-09-30T14:31:00.750Z,16.80
2017-09-30T14:33:29.140Z,16.70
2017-09-30T14:35:56.714Z,16.70
2017-09-30T14:38:24.285Z,16.70
2017-09-30T14:40:52.695Z,16.80
2017-09-30T14:43:20.271Z,16.80
2017-09-30T14:45:47.853Z,16.80
2017-09-30T14:48:15.554Z,16.80
2017-09-30T14:50:43.121Z,16.80
2017-09-30T14:53:10.688Z,16.80
2017-09-30T14:55:38.390Z,16.80
2017-09-30T14:58:05.966Z,16.80
2017-09-30T15:00:34.329Z,16.80
2017-09-30T15:03:02.714Z,16.80
2017-09-30T15:05:30.283Z,16.80
2017-09-30T15:07:57.869Z,16.80
2017-09-30T15:10:26.259Z,16.70
2017-09-30T15:12:53.834Z,16.70
2017-09-30T15:15:21.408Z,16.60
2017-09-30T15:17:49.146Z,16.60
2017-09-30T15:20:16.718Z,16.60
2017-09-30T15:22:45.058Z,16.70
2017-09-30T15:25:12.901Z,16.60
2017-09-30T15:27:40.469Z,16.70
2017-09-30T15:30:08.069Z,16.70
2017-09-30T15:32:35.987Z,16.70
2017-09-30T15:35:03.565Z,16.60
2017-09-30T15:37:31.142Z,16.70
2017-09-30T15:40:00.273Z,16.70
2017-09-30T15:42:27.855Z,16.70
2017-09-30T15:44:55.430Z,16.70
2017-09-30T15:47:23.994Z,16.70
2017-09-30T15:49:52.331Z,16.70
2017-09-30T15:52:20.680Z,16.70
2017-09-30T15:54:48.316Z,16.70
2017-09-30T15:57:15.891Z,16.70
2017-09-30T15:59:44.237Z,16.70
2017-09-30T16:02:11.862Z,16.70
2017-09-30T16:04:39.442Z,16.70
2017-09-30T16:07:07.782Z,16.70
2017-09-30T16:09:35.602Z,16.70
2017-09-30T16:12:03.174Z,16.70
2017-09-30T16:14:30.744Z,16.70
2017-09-30T16:16:58.360Z,16.70
2017-09-30T16:19:25.938Z,16.70
2017-09-30T16:21:54.277Z,16.70
2017-09-30T16:24:21.907Z,16.70
2017-09-30T16:26:49.503Z,16.70
2017-09-30T16:29:17.881Z,16.80
2017-09-30T16:31:45.514Z,16.70
2017-09-30T16:34:13.099Z,16.80
2017-09-30T16:36:40.674Z,16.70
2017-09-30T16:39:09.067Z,16.70
2017-09-30T16:41:36.647Z,16.70
2017-09-30T16:44:04.222Z,16.70
2017-09-30T16:46:31.842Z,16.70
2017-09-30T16:48:59.422Z,16.70
2017-09-30T16:51:26.991Z,16.70
2017-09-30T16:53:54.721Z,16.70
2017-09-30T16:56:23.058Z,16.70
2017-09-30T16:58:50.628Z,16.70
2017-09-30T17:01:19.039Z,16.70
2017-09-30T17:03:46.616Z,16.70
2017-09-30T17:06:14.964Z,16.80
2017-09-30T17:08:42.587Z,16.80
2017-09-30T17:11:10.163Z,16.80
2017-09-30T17:13:37.748Z,16.70
2017-09-30T17:16:05.366Z,16.70
2017-09-30T17:18:33.723Z,16.70
2017-09-30T17:21:01.298Z,16.70
2017-09-30T17:23:28.935Z,16.60
2017-09-30T17:25:56.522Z,16.60
2017-09-30T17:28:24.104Z,16.60
2017-09-30T17:30:52.690Z,16.60
2017-09-30T17:33:20.265Z,16.60
2017-09-30T17:35:47.935Z,16.60
2017-09-30T17:38:15.569Z,16.60
2017-09-30T17:40:43.142Z,16.60
2017-09-30T17:43:10.730Z,16.60
2017-09-30T17:45:38.454Z,16.70
2017-09-30T17:48:06.800Z,16.60
2017-09-30T17:50:35.235Z,16.60
2017-09-30T17:53:02.964Z,16.60
2017-09-30T17:55:30.537Z,16.60
2017-09-30T17:57:58.190Z,16.60
2017-09-30T18:00:25.844Z,16.70
2017-09-30T18:02:54.187Z,16.60
2017-09-30T18:05:21.766Z,16.60
2017-09-30T18:07:50.338Z,16.60
2017-09-30T18:10:17.929Z,16.60
2017-09-30T18:12:45.514Z,16.60
2017-09-30T18:15:14.008Z,16.60
2017-09-30T18:17:41.587Z,16.50
2017-09-30T18:20:09.194Z,16.60
2017-09-30T18:22:36.826Z,16.50
2017-09-30T18:25:04.438Z,16.50
2017-09-30T18:27:32.014Z,16.50
2017-09-30T18:30:00.394Z,16.60
2017-09-30T18:32:27.992Z,16.50
2017-09-30T18:34:55.572Z,16.50
2017-09-30T18:37:23.214Z,16.60
2017-09-30T18:39:50.863Z,16.60
2017-09-30T18:42:18.494Z,16.60
2017-09-30T18:44:46.906Z,16.50
2017-09-30T18:47:14.495Z,16.50
2017-09-30T18:49:42.931Z,16.40
2017-09-30T18:52:10.558Z,16.30
2017-09-30T18:54:38.141Z,16.40
2017-09-30T18:57:06.482Z,16.20
2017-09-30T18:59:34.113Z,16.20
2017-09-30T19:02:01.682Z,16.10
2017-09-30T19:04:29.266Z,16.00
2017-09-30T19:06:56.903Z,16.00
2017-09-30T19:09:24.482Z,16.00
2017-09-30T19:11:52.066Z,16.00
2017-09-30T19:14:19.938Z,16.00
2017-09-30T19:16:48.451Z,15.90
2017-09-30T19:19:16.104Z,15.90
2017-09-30T19:21:43.745Z,15.90
2017-09-30T19:24:11.394Z,15.80
2017-09-30T19:26:38.989Z,15.80
2017-09-30T19:29:07.390Z,15.80
2017-09-30T19:31:35.049Z,15.80
2017-09-30T19:34:02.626Z,15.70
2017-09-30T19:36:31.022Z,15.70
2017-09-30T19:38:58.605Z,15.70
2017-09-30T19:41:26.182Z,15.70
2017-09-30T19:43:54.753Z,15.70
2017-09-30T19:46:23.107Z,15.70
2017-09-30T19:48:52.669Z,15.70
2017-09-30T19:51:20.297Z,15.70
2017-09-30T19:53:47.874Z,15.70
2017-09-30T19:56:16.314Z,15.70
2017-09-30T19:58:44.077Z,15.70
2017-09-30T20:01:12.527Z,15.40
2017-09-30T20:03:40.184Z,15.30
2017-09-30T20:06:08.626Z,15.00
2017-09-30T20:08:36.195Z,15.00
2017-09-30T20:11:04.336Z,14.80
2017-09-30T20:13:31.962Z,14.70
2017-09-30T20:15:59.530Z,14.60
2017-09-30T20:18:27.102Z,14.60
2017-09-30T20:20:55.495Z,14.40
2017-09-30T20:23:23.058Z,14.40
2017-09-30T20:25:50.622Z,14.30
2017-09-30T20:28:18.260Z,14.20
2017-09-30T20:30:45.833Z,14.20
2017-09-30T20:33:14.167Z,14.10
2017-09-30T20:35:41.795Z,14.10
2017-09-30T20:38:09.386Z,14.10
2017-09-30T20:40:37.759Z,14.00
2017-09-30T20:43:06.317Z,14.00
2017-09-30T20:45:34.756Z,14.00
2017-09-30T20:48:02.322Z,13.90
2017-09-30T20:50:30.044Z,13.90
2017-09-30T20:52:57.618Z,13.80
2017-09-30T20:55:25.958Z,13.80
2017-09-30T20:57:53.588Z,13.80
2017-09-30T21:00:21.154Z,13.80
2017-09-30T21:02:48.727Z,13.80
2017-09-30T21:05:17.126Z,13.80
2017-09-30T21:07:44.694Z,13.80
2017-09-30T21:10:12.267Z,13.80
2017-09-30T21:12:40.842Z,13.70
2017-09-30T21:15:09.210Z,13.70
2017-09-30T21:17:36.774Z,13.70
2017-09-30T21:20:04.398Z,13.70
2017-09-30T21:22:31.974Z,13.70
2017-09-30T21:24:59.541Z,13.70
2017-09-30T21:27:27.158Z,13.70
2017-09-30T21:29:54.730Z,13.70
2017-09-30T21:32:22.298Z,13.70
2017-09-30T21:34:50.703Z,13.70
2017-09-30T21:37:18.277Z,13.60
2017-09-30T21:39:45.855Z,13.60
2017-09-30T21:42:14.249Z,13.60
2017-09-30T21:44:41.815Z,13.60
2017-09-30T21:47:09.369Z,13.60
2017-09-30T21:49:37.010Z,13.50
2017-09-30T21:52:04.579Z,13.50
2017-09-30T21:54:32.146Z,13.50
2017-09-30T21:56:59.766Z,13.50
2017-09-30T21:59:27.345Z,13.50
2017-09-30T22:01:55.036Z,13.50
2017-09-30T22:04:22.654Z,13.50
2017-09-30T22:06:50.231Z,13.50
2017-09-30T22:09:17.813Z,13.50
2017-09-30T22:11:45.435Z,13.50
2017-09-30T22:14:14.512Z,13.50
2017-09-30T22:16:42.862Z,13.40
2017-09-30T22:19:11.511Z,13.40
2017-09-30T22:21:39.095Z,13.40
2017-09-30T22:24:07.435Z,13.40
2017-09-30T22:26:35.051Z,13.40
2017-09-30T22:29:02.631Z,13.40
2017-09-30T22:31:30.210Z,13.40
2017-09-30T22:33:57.839Z,13.40
2017-09-30T22:36:26.170Z,13.40
2017-09-30T22:38:53.751Z,13.40
2017-09-30T22:41:21.396Z,13.40
2017-09-30T22:43:49.736Z,13.40
2017-09-30T22:46:17.312Z,13.40
2017-09-30T22:48:44.930Z,13.40
2017-09-30T22:51:13.272Z,13.40
2017-09-30T22:53:40.850Z,13.40
2017-09-30T22:56:09.390Z,13.40
2017-09-30T22:58:36.963Z,13.40
2017-09-30T23:01:05.295Z,13.40
2017-09-30T23:03:32.921Z,13.40
2017-09-30T23:06:00.498Z,13.40
2017-09-30T23:08:28.840Z,13.40
2017-09-30T23:10:57.230Z,13.40
2017-09-30T23:13:25.660Z,13.40
2017-09-30T23:15:53.235Z,13.40
2017-09-30T23:18:21.759Z,13.40
2017-09-30T23:20:49.334Z,13.40
2017-09-30T23:23:17.694Z,13.30
2017-09-30T23:25:45.314Z,13.40
2017-09-30T23:28:12.895Z,13.40
2017-09-30T23:30:41.230Z,13.40
2017-09-30T23:33:08.861Z,13.40
2017-09-30T23:35:36.435Z,13.40
2017-09-30T23:38:04.780Z,13.40
2017-09-30T23:40:32.411Z,13.40
2017-09-30T23:42:59.982Z,13.40
2017-09-30T23:45:27.612Z,13.40
2017-09-30T23:47:55.251Z,13.30
2017-09-30T23:50:22.828Z,13.30
2017-09-30T23:52:50.391Z,13.30
2017-09-30T23:55:18.131Z,13.30
2017-09-30T23:57:46.468Z,13.30
